Ana Sayfa
METAR-TAF:

METAR-TAF

Havaalanları :

Westerly State Airport

Westerly, Rhode Island, Amerika Birleşik Devletleri

Enlem: 41-20-59N, Boylam: 071-47-56W, yükseklik: 24 m

Güncel hava durumu gözlemi

Rapor saat 18:53 UTC de 43 dakika önce yapıldı.
Rüzgar kuzeybatıdan 8 kt ve 14 kt'a kadar ani rüzgarlar, batı ve kuzey arasında değişken
Sıcaklık 3°C
Nem 41%
Basınç 1027 hPa
Görüş mesafesi: 16.1 km
Açık gökyüzü

METAR: KWST 071853Z AUTO 31008G14KT 280V350 10SM CLR 03/M09 A3032 RMK AO2 SLP268 T00331094

Saat: 14:36 (19:36 UTC)


TAF: eksik

4.000'den fazla havaalanı için hava durumu gözlemleri ve tahminleri (METAR ve TAF raporları).

Kullanılabilir istasyonlar harita üzerinde sarı ve kırmızı noktalarla gösterilir.

İstasyonun adını görmek için fareyi noktanın üzerinde gezdirin.

Sonrasında hava gözlem ve tahminlerini görmek için tıklayın.

Haritayı değiştirmek için: yaklaştırmak için siyah artı işaretli yeşil düğmeye ve uzaklaştırmak için de eksi işaretli düğmeye hızla tıklayın; bitişik haritalar için yeşil okları kullanın.


METAR-TAF: